Datum Uhrzeit Temperatur Luft Windgeschw. Regen Regen (1h) Temp (1h) Luftdruck Windrichtung Taupunkt Sensor
2018-05-21 20:19:00 16.6 49.0 0.5 0.0 0.0 -2.9 5.8 Kombisensor
2018-05-21 20:17:00 16.7 48.0 0.0 0.0 0.0 -2.8 5.7 Kombisensor
2018-05-21 20:14:00 16.7 48.0 0.2 0.0 0.0 -2.9 5.7 Kombisensor
2018-05-21 20:12:00 16.8 47.0 0.2 0.0 0.0 -2.8 5.4 Kombisensor
2018-05-21 20:09:00 16.9 47.0 0.0 0.0 0.0 -2.7 5.5 Kombisensor
2018-05-21 20:07:00 17.0 47.0 0.0 0.0 0.0 -2.8 5.6 Kombisensor
2018-05-21 20:04:00 17.1 46.0 1.1 0.0 0.0 -2.9 5.4 Kombisensor
2018-05-21 20:02:00 17.2 46.0 0.2 0.0 0.0 -2.8 5.5 Kombisensor
2018-05-21 19:59:00 17.3 45.0 0.5 0.0 0.0 -2.7 5.3 Kombisensor
2018-05-21 19:56:00 17.4 45.0 0.5 0.0 0.0 -2.8 5.3 Kombisensor
2018-05-21 19:51:00 17.7 44.0 0.5 0.0 0.0 -2.3 5.3 Kombisensor
2018-05-21 19:49:00 17.8 43.0 0.2 0.0 0.0 -2.2 5.1 Kombisensor
2018-05-21 19:46:00 17.9 43.0 0.8 0.0 0.0 -1.9 5.2 Kombisensor
2018-05-21 19:44:00 18.1 43.0 0.2 0.0 0.0 -2.0 5.3 Kombisensor
2018-05-21 19:41:00 18.3 41.0 0.8 0.0 0.0 -2.0 4.8 Kombisensor
2018-05-21 19:39:00 18.4 41.0 1.3 0.0 0.0 -2.1 4.9 Kombisensor
2018-05-21 19:34:00 18.9 41.0 0.2 0.0 0.0 -1.6 5.4 Kombisensor
2018-05-21 19:31:00 19.0 40.0 0.8 0.0 0.0 -1.5 5.1 Kombisensor
2018-05-21 19:29:00 19.0 40.0 1.3 0.0 0.0 -1.5 5.1 Kombisensor
2018-05-21 19:26:00 19.1 40.0 1.3 0.0 0.0 -1.4 5.2 Kombisensor
2018-05-21 19:23:00 19.2 42.0 1.3 0.0 0.0 -1.3 6.0 Kombisensor
2018-05-21 19:21:00 19.5 43.0 0.2 0.0 0.0 -1.0 6.6 Kombisensor
2018-05-21 19:16:00 19.5 43.0 0.8 0.0 0.0 -1.4 6.6 Kombisensor
2018-05-21 19:11:00 19.6 42.0 0.8 0.0 0.0 -1.4 6.3 Kombisensor
2018-05-21 19:08:00 19.6 42.0 1.9 0.0 0.0 -1.8 6.3 Kombisensor
2018-05-21 19:06:00 19.8 42.0 2.2 0.0 0.0 -1.6 6.5 Kombisensor
2018-05-21 19:03:00 20.0 43.0 1.3 0.0 0.0 -1.2 7.0 Kombisensor
2018-05-21 19:01:00 20.0 43.0 1.1 0.0 0.0 -1.2 7.0 Kombisensor
2018-05-21 18:58:00 20.0 44.0 1.6 0.0 0.0 -1.1 7.4 Kombisensor
2018-05-21 18:55:00 20.2 44.0 0.8 0.0 0.0 -0.9 7.6 Kombisensor
2018-05-21 18:53:00 20.0 44.0 0.8 0.0 0.0 -1.1 7.4 Kombisensor
2018-05-21 18:50:00 20.0 44.0 0.8 0.0 0.0 -1.0 7.4 Kombisensor
2018-05-21 18:48:00 19.8 45.0 1.1 0.0 0.0 -1.2 7.5 Kombisensor
2018-05-21 18:45:00 19.8 44.0 0.8 0.0 0.0 -1.6 7.2 Kombisensor
2018-05-21 18:43:00 20.1 45.0 1.1 0.0 0.0 -1.5 7.8 Kombisensor
2018-05-21 18:40:00 20.3 44.0 0.8 0.0 0.0 -1.5 7.7 Kombisensor
2018-05-21 18:38:00 20.5 44.0 1.1 0.0 0.0 -1.3 7.8 Kombisensor
2018-05-21 18:35:00 20.5 44.0 1.9 0.0 0.0 -1.4 7.8 Kombisensor
2018-05-21 18:30:00 20.5 43.0 1.9 0.0 0.0 -1.3 7.5 Kombisensor
2018-05-21 18:25:00 20.5 44.0 1.3 0.0 0.0 -1.1 7.8 Kombisensor
2018-05-21 18:22:00 20.5 43.0 2.2 0.0 0.0 -1.1 7.5 Kombisensor
2018-05-21 18:20:00 20.8 43.0 0.8 0.0 0.0 -0.8 7.8 Kombisensor
2018-05-21 18:17:00 20.6 44.0 2.5 0.0 0.0 -1.0 7.9 Kombisensor
2018-05-21 18:15:00 20.9 43.0 1.9 0.0 0.0 -0.6 7.9 Kombisensor
2018-05-21 18:12:00 21.0 43.0 1.6 0.0 0.0 -0.6 8.0 Kombisensor
2018-05-21 18:10:00 21.0 43.0 2.2 0.0 0.0 -0.6 8.0 Kombisensor
2018-05-21 18:07:00 21.4 42.0 1.9 0.0 0.0 -0.2 8.0 Kombisensor
2018-05-21 18:05:00 21.4 42.0 0.8 0.0 0.0 -0.1 8.0 Kombisensor
2018-05-21 18:02:00 21.2 42.0 1.9 0.0 0.0 -0.2 7.8 Kombisensor
2018-05-21 18:00:00 21.2 42.0 1.6 0.0 0.0 -0.1 7.8 Kombisensor
2018-05-21 17:57:00 21.1 43.0 2.2 0.0 0.0 -0.3 8.0 Kombisensor
2018-05-21 17:54:00 21.1 43.0 0.8 0.0 0.0 -0.9 8.0 Kombisensor
2018-05-21 17:49:00 21.0 43.0 1.9 0.0 0.0 -1.3 8.0 Kombisensor
2018-05-21 17:47:00 21.1 43.0 2.2 0.0 0.0 -1.0 8.0 Kombisensor
2018-05-21 17:44:00 21.4 43.0 1.6 0.0 0.0 -0.7 8.3 Kombisensor
2018-05-21 17:42:00 21.6 43.0 1.1 0.0 0.0 -0.3 8.5 Kombisensor
2018-05-21 17:37:00 21.8 43.0 1.1 0.0 0.0 -0.1 8.7 Kombisensor
2018-05-21 17:34:00 21.9 44.0 0.8 0.0 0.0 -0.3 9.1 Kombisensor
2018-05-21 17:32:00 21.7 43.0 1.3 0.0 0.0 -0.3 8.6 Kombisensor
2018-05-21 17:29:00 21.8 43.0 1.1 0.0 0.0 -0.2 8.7 Kombisensor
2018-05-21 17:27:00 21.6 43.0 1.3 0.0 0.0 -0.5 8.5 Kombisensor
2018-05-21 17:24:00 21.6 42.0 1.9 0.0 0.0 -0.6 8.2 Kombisensor
2018-05-21 17:21:00 21.6 44.0 2.2 0.0 0.0 -0.4 8.8 Kombisensor
2018-05-21 17:19:00 21.5 43.0 2.5 0.0 0.0 -0.5 8.4 Kombisensor
2018-05-21 17:16:00 21.6 42.0 1.9 0.0 0.0 -0.2 8.2 Kombisensor
2018-05-21 17:14:00 21.5 42.0 1.6 0.0 0.0 -0.3 8.1 Kombisensor
2018-05-21 17:09:00 21.6 42.0 1.9 0.0 0.0 -0.7 8.2 Kombisensor
2018-05-21 17:06:00 21.6 44.0 1.6 0.0 0.0 -0.6 8.8 Kombisensor
2018-05-21 17:04:00 21.5 43.0 1.9 0.0 0.0 -0.7 8.4 Kombisensor
2018-05-21 17:01:00 21.4 43.0 1.3 0.0 0.0 -0.7 8.3 Kombisensor
2018-05-21 16:59:00 21.3 43.0 1.9 0.0 0.0 -0.6 8.2 Kombisensor
2018-05-21 16:56:00 21.4 43.0 3.0 0.0 0.0 -0.3 8.3 Kombisensor
2018-05-21 16:53:00 22.0 42.0 1.3 0.0 0.0 0.0 8.5 Kombisensor
2018-05-21 16:51:00 22.4 44.0 0.8 0.0 0.0 0.4 9.6 Kombisensor
2018-05-21 16:48:00 22.3 44.0 0.5 0.0 0.0 0.2 9.5 Kombisensor
2018-05-21 16:46:00 22.1 43.0 1.1 0.0 0.0 0.0 8.9 Kombisensor
2018-05-21 16:43:00 22.1 44.0 0.5 0.0 0.0 -0.1 9.3 Kombisensor
2018-05-21 16:41:00 21.9 43.0 1.3 0.0 0.0 -0.4 8.8 Kombisensor
2018-05-21 16:38:00 21.9 44.0 1.9 0.0 0.0 -0.5 9.1 Kombisensor
2018-05-21 16:36:00 21.9 43.0 3.3 0.0 0.0 -0.6 8.8 Kombisensor
2018-05-21 16:33:00 22.2 43.0 1.1 0.0 0.0 -0.3 9.0 Kombisensor
2018-05-21 16:28:00 22.0 43.0 1.9 0.0 0.0 -0.1 8.8 Kombisensor
2018-05-21 16:26:00 22.1 43.0 1.6 0.0 0.0 0.0 8.9 Kombisensor
2018-05-21 16:23:00 22.2 44.0 1.1 0.0 0.0 0.0 9.4 Kombisensor
2018-05-21 16:20:00 22.0 45.0 0.5 0.0 0.0 0.1 9.5 Kombisensor
2018-05-21 16:18:00 21.8 45.0 1.1 0.0 0.0 -0.1 9.3 Kombisensor
2018-05-21 16:15:00 21.8 44.0 1.9 0.0 0.0 -0.2 9.0 Kombisensor
2018-05-21 16:13:00 21.8 45.0 1.6 0.0 0.0 -0.3 9.3 Kombisensor
2018-05-21 16:10:00 22.1 43.0 1.6 0.0 0.0 0.2 8.9 Kombisensor
2018-05-21 16:08:00 22.3 44.0 0.5 0.0 0.0 0.4 9.5 Kombisensor
2018-05-21 16:03:00 22.2 44.0 0.8 0.0 0.0 0.0 9.4 Kombisensor
2018-05-21 16:00:00 22.1 44.0 0.8 0.0 0.0 0.2 9.3 Kombisensor
2018-05-21 15:58:00 21.9 43.0 1.3 0.0 0.0 0.0 8.8 Kombisensor
2018-05-21 15:55:00 21.7 42.0 1.9 0.0 0.0 -0.3 8.2 Kombisensor
2018-05-21 15:52:00 22.0 42.0 0.8 0.0 0.0 -0.3 8.5 Kombisensor
2018-05-21 15:47:00 22.1 41.0 0.8 0.0 0.0 -0.4 8.2 Kombisensor
2018-05-21 15:45:00 22.2 41.0 0.8 0.0 0.0 -0.3 8.3 Kombisensor
2018-05-21 15:42:00 22.2 41.0 1.9 0.0 0.0 -0.3 8.3 Kombisensor
2018-05-21 15:40:00 22.3 40.0 1.1 0.0 0.0 -0.1 8.1 Kombisensor
2018-05-21 15:37:00 22.4 39.0 1.6 0.0 0.0 0.0 7.8 Kombisensor
2018-05-21 15:35:00 22.5 41.0 0.8 0.0 0.0 0.1 8.6 Kombisensor
2018-05-21 15:32:00 22.5 39.0 0.5 0.0 0.0 -0.1 7.9 Kombisensor
2018-05-21 15:30:00 22.2 40.0 0.8 0.0 0.0 -0.1 8.0 Kombisensor
2018-05-21 15:27:00 22.1 39.0 1.3 0.0 0.0 -0.2 7.5 Kombisensor
2018-05-21 15:25:00 22.1 40.0 1.6 0.0 0.0 -0.3 7.9 Kombisensor
2018-05-21 15:22:00 22.2 40.0 0.8 0.0 0.0 0.1 8.0 Kombisensor
2018-05-21 15:19:00 21.9 39.0 1.3 0.0 0.0 0.0 7.3 Kombisensor
2018-05-21 15:17:00 21.9 38.0 1.6 0.0 0.0 0.0 7.0 Kombisensor
2018-05-21 15:14:00 22.0 38.0 1.3 0.0 0.0 -0.1 7.0 Kombisensor
2018-05-21 15:12:00 22.1 38.0 0.2 0.0 0.0 0.0 7.1 Kombisensor
2018-05-21 15:07:00 21.9 37.0 1.1 0.0 0.0 0.3 6.6 Kombisensor
2018-05-21 15:04:00 22.1 39.0 1.1 0.0 0.0 0.4 7.5 Kombisensor
2018-05-21 15:02:00 22.2 40.0 0.8 0.0 0.0 0.6 8.0 Kombisensor
2018-05-21 14:59:00 21.9 40.0 1.3 0.0 0.0 0.5 7.7 Kombisensor
2018-05-21 14:57:00 21.9 39.0 1.3 0.0 0.0 0.6 7.3 Kombisensor
2018-05-21 14:54:00 22.0 39.0 1.6 0.0 0.0 0.7 7.4 Kombisensor
2018-05-21 14:51:00 22.3 40.0 0.8 0.0 0.0 0.7 8.1 Kombisensor
2018-05-21 14:49:00 22.4 39.0 0.8 0.0 0.0 0.8 9.0 Kombisensor
2018-05-21 14:46:00 22.5 42.0 0.8 0.0 0.0 1.1 9.0 Kombisensor
2018-05-21 14:44:00 22.4 41.0 1.3 0.0 0.0 1.0 8.5 Kombisensor
2018-05-21 14:41:00 22.5 41.0 0.5 0.0 0.0 1.1 8.6 Kombisensor
2018-05-21 14:39:00 22.4 41.0 1.6 0.0 0.0 0.9 8.5 Kombisensor
2018-05-21 14:36:00 22.4 42.0 1.1 0.0 0.0 1.0 8.9 Kombisensor
2018-05-21 14:34:00 22.4 41.0 1.3 0.0 0.0 0.8 8.5 Kombisensor
2018-05-21 14:31:00 22.6 42.0 0.5 0.0 0.0 1.1 9.1 Kombisensor
2018-05-21 14:26:00 22.3 44.0 0.8 0.0 0.0 1.0 9.5 Kombisensor
2018-05-21 14:24:00 22.4 45.0 0.2 0.0 0.0 1.0 9.9 Kombisensor
2018-05-21 14:21:00 22.1 45.0 0.8 0.0 0.0 0.7 9.6 Kombisensor
2018-05-21 14:18:00 21.9 44.0 1.6 0.0 0.0 0.6 9.1 Kombisensor
2018-05-21 14:16:00 22.2 45.0 1.1 0.0 0.0 0.9 9.7 Kombisensor
2018-05-21 14:13:00 22.1 45.0 1.1 0.0 0.0 0.8 9.6 Kombisensor
2018-05-21 14:11:00 22.1 47.0 0.8 0.0 0.0 0.9 10.3 Kombisensor
2018-05-21 14:08:00 22.0 49.0 0.8 0.0 0.0 1.0 10.8 Kombisensor
2018-05-21 14:06:00 21.6 48.0 1.9 0.0 0.0 0.6 10.1 Kombisensor
2018-05-21 14:03:00 21.7 47.0 1.6 0.0 0.0 0.7 9.9 Kombisensor
2018-05-21 14:01:00 21.6 48.0 0.5 0.0 0.0 0.7 10.1 Kombisensor
2018-05-21 13:58:00 21.4 50.0 1.3 0.0 0.0 0.4 10.6 Kombisensor
2018-05-21 13:56:00 21.3 51.0 1.6 0.0 0.0 0.2 10.8 Kombisensor
2018-05-21 13:53:00 21.3 51.0 1.9 0.0 0.0 0.2 10.8 Kombisensor
2018-05-21 13:50:00 21.6 50.0 1.1 0.0 0.0 0.7 10.7 Kombisensor
2018-05-21 13:45:00 21.4 52.0 1.6 0.0 0.0 0.5 11.1 Kombisensor
2018-05-21 13:40:00 21.4 51.0 1.3 0.0 0.0 1.0 10.8 Kombisensor
2018-05-21 13:38:00 21.5 50.0 0.5 0.0 0.0 1.3 10.7 Kombisensor
2018-05-21 13:35:00 21.4 51.0 1.1 0.0 0.0 1.4 10.8 Kombisensor
2018-05-21 13:33:00 21.6 51.0 0.8 0.0 0.0 1.8 11.0 Kombisensor
2018-05-21 13:30:00 21.5 52.0 0.5 0.0 0.0 1.6 11.2 Kombisensor
2018-05-21 13:28:00 21.2 51.0 1.1 0.0 0.0 0.9 10.7 Kombisensor
2018-05-21 13:25:00 21.3 50.0 0.8 0.0 0.0 1.0 10.5 Kombisensor
2018-05-21 13:22:00 21.4 52.0 0.2 0.0 0.0 1.0 11.1 Kombisensor
2018-05-21 13:20:00 21.3 51.0 0.5 0.0 0.0 0.9 10.8 Kombisensor
2018-05-21 13:17:00 21.3 51.0 1.1 0.0 0.0 1.1 10.8 Kombisensor
2018-05-21 13:12:00 21.3 51.0 0.8 0.0 0.0 0.8 10.8 Kombisensor
2018-05-21 13:10:00 21.2 52.0 0.2 0.0 0.0 0.6 11.0 Kombisensor
2018-05-21 13:02:00 21.0 52.0 1.1 0.0 0.0 0.5 10.8 Kombisensor
2018-05-21 13:00:00 20.9 52.0 1.6 0.0 0.0 0.2 10.7 Kombisensor
2018-05-21 12:57:00 21.0 51.0 1.6 0.0 0.0 0.4 10.5 Kombisensor
2018-05-21 12:55:00 21.1 53.0 0.8 0.0 0.0 0.6 11.2 Kombisensor
2018-05-21 12:52:00 21.1 52.0 0.8 0.0 0.0 0.7 10.9 Kombisensor
2018-05-21 12:49:00 20.9 54.0 0.5 0.0 0.0 0.5 11.2 Kombisensor
2018-05-21 12:47:00 21.0 54.0 0.2 0.0 0.0 0.6 11.3 Kombisensor
2018-05-21 12:44:00 20.9 55.0 0.2 0.0 0.0 0.9 11.5 Kombisensor
2018-05-21 12:42:00 20.6 57.0 0.5 0.0 0.0 0.6 11.8 Kombisensor
2018-05-21 12:39:00 20.4 57.0 0.2 0.0 0.0 0.3 11.6 Kombisensor
2018-05-21 12:37:00 20.2 57.0 0.5 0.0 0.0 0.2 11.4 Kombisensor
2018-05-21 12:34:00 20.0 57.0 0.5 0.0 0.0 0.1 11.2 Kombisensor
2018-05-21 12:32:00 19.8 56.0 0.5 0.0 0.0 -0.2 10.8 Kombisensor
2018-05-21 12:29:00 19.9 56.0 1.3 0.0 0.0 -0.1 10.9 Kombisensor
2018-05-21 12:24:00 20.3 56.0 0.5 0.0 0.0 0.6 11.2 Kombisensor
2018-05-21 12:21:00 20.4 56.0 0.2 0.0 0.0 0.7 11.3 Kombisensor
2018-05-21 12:19:00 20.3 57.0 0.2 0.0 0.0 0.6 11.5 Kombisensor
2018-05-21 12:16:00 20.2 57.0 0.2 0.0 0.0 0.5 11.4 Kombisensor
2018-05-21 12:14:00 20.2 57.0 0.5 0.0 0.0 0.5 11.4 Kombisensor
2018-05-21 12:11:00 20.5 56.0 0.2 0.0 0.0 1.1 11.4 Kombisensor
2018-05-21 12:09:00 20.6 57.0 0.0 0.0 0.0 1.4 11.8 Kombisensor
2018-05-21 12:06:00 20.6 56.0 0.5 0.0 0.0 1.2 11.5 Kombisensor
2018-05-21 12:04:00 20.5 57.0 0.0 0.0 0.0 1.1 11.7 Kombisensor
2018-05-21 12:01:00 20.5 55.0 0.2 0.0 0.0 1.3 11.2 Kombisensor
2018-05-21 11:59:00 20.7 54.0 0.0 0.0 0.0 1.7 11.1 Kombisensor
2018-05-21 11:56:00 20.6 56.0 0.2 0.0 0.0 1.8 11.5 Kombisensor
2018-05-21 11:54:00 20.5 56.0 0.2 0.0 0.0 1.7 11.4 Kombisensor
2018-05-21 11:51:00 20.4 56.0 0.8 0.0 0.0 1.8 11.3 Kombisensor
2018-05-21 11:48:00 20.4 56.0 0.5 0.0 0.0 2.0 11.3 Kombisensor
2018-05-21 11:43:00 20.0 57.0 0.2 0.0 0.0 1.7 11.2 Kombisensor
2018-05-21 11:41:00 20.0 57.0 0.5 0.0 0.0 1.8 11.2 Kombisensor
2018-05-21 11:38:00 20.1 58.0 0.0 0.0 0.0 1.9 11.6 Kombisensor
2018-05-21 11:36:00 20.0 57.0 0.0 0.0 0.0 2.0 11.2 Kombisensor
2018-05-21 11:33:00 19.9 57.0 0.0 0.0 0.0 1.9 11.1 Kombisensor
2018-05-21 11:31:00 20.0 56.0 0.2 0.0 0.0 2.3 11.0 Kombisensor
2018-05-21 11:28:00 20.0 57.0 0.2 0.0 0.0 2.5 11.2 Kombisensor
2018-05-21 11:26:00 19.9 58.0 0.0 0.0 0.0 2.4 11.4 Kombisensor
2018-05-21 11:20:00 19.7 58.0 0.0 0.0 0.0 2.2 11.2 Kombisensor
2018-05-21 11:18:00 19.9 61.0 0.0 0.0 0.0 2.4 12.2 Kombisensor
2018-05-21 11:13:00 19.7 60.0 0.0 0.0 0.0 2.1 11.7 Kombisensor
2018-05-21 11:10:00 19.4 59.0 0.0 0.0 0.0 2.0 11.2 Kombisensor
2018-05-21 11:08:00 19.2 59.0 0.5 0.0 0.0 1.8 11.0 Kombisensor
2018-05-21 11:03:00 19.4 61.0 0.0 0.0 0.0 2.2 11.7 Kombisensor
2018-05-21 11:00:00 19.2 61.0 0.0 0.0 0.0 2.0 11.5 Kombisensor
2018-05-21 10:58:00 19.0 62.0 0.0 0.0 0.0 1.9 11.6 Kombisensor
2018-05-21 10:53:00 18.8 62.0 0.2 0.0 0.0 1.7 11.4 Kombisensor
2018-05-21 10:50:00 18.6 62.0 0.0 0.0 0.0 1.4 11.2 Kombisensor
2018-05-21 10:47:00 18.4 62.0 0.0 0.0 0.0 1.4 11.0 Kombisensor
2018-05-21 10:45:00 18.3 62.0 0.2 0.0 0.0 1.3 10.9 Kombisensor
2018-05-21 10:42:00 18.3 63.0 0.0 0.0 0.0 1.6 11.1 Kombisensor
2018-05-21 10:37:00 18.2 63.0 0.0 0.0 0.0 1.7 11.1 Kombisensor
2018-05-21 10:35:00 18.0 63.0 0.0 0.0 0.0 1.6 10.9 Kombisensor
2018-05-21 10:32:00 18.0 65.0 0.0 0.0 0.0 1.6 11.3 Kombisensor
2018-05-21 10:30:00 17.7 65.0 0.0 0.0 0.0 1.4 11.0 Kombisensor
2018-05-21 10:27:00 17.5 64.0 0.0 0.0 0.0 1.3 10.6 Kombisensor
2018-05-21 10:17:00 17.5 65.0 0.0 0.0 0.0 1.7 10.8 Kombisensor
2018-05-21 10:14:00 17.6 67.0 0.0 0.0 0.0 2.0 11.4 Kombisensor
2018-05-21 10:07:00 17.4 66.0 0.0 0.0 0.0 2.1 11.0 Kombisensor
2018-05-21 10:04:00 17.4 65.0 0.0 0.0 0.0 2.1 10.8 Kombisensor
2018-05-21 09:59:00 17.2 67.0 0.0 0.0 0.0 1.8 11.0 Kombisensor
2018-05-21 09:57:00 17.1 67.0 0.0 0.0 0.0 1.8 10.9 Kombisensor
2018-05-21 09:54:00 17.2 68.0 0.0 0.0 0.0 1.9 11.2 Kombisensor
2018-05-21 09:52:00 17.1 68.0 0.0 0.0 0.0 1.9 11.2 Kombisensor
2018-05-21 09:49:00 17.2 68.0 0.0 0.0 0.0 2.0 11.2 Kombisensor
2018-05-21 09:46:00 17.0 68.0 0.0 0.0 0.0 1.7 11.1 Kombisensor
2018-05-21 09:41:00 16.7 68.0 0.0 0.0 0.0 1.4 10.8 Kombisensor
2018-05-21 09:39:00 16.6 69.0 0.0 0.0 0.0 1.3 10.9 Kombisensor
2018-05-21 09:36:00 16.5 69.0 0.0 0.0 0.0 1.3 10.8 Kombisensor
2018-05-21 09:31:00 16.4 69.0 0.0 0.0 0.0 1.6 10.7 Kombisensor
2018-05-21 09:29:00 16.3 69.0 0.0 0.0 0.0 1.6 10.6 Kombisensor
2018-05-21 09:26:00 16.2 69.0 0.0 0.0 0.0 1.7 10.5 Kombisensor
2018-05-21 09:24:00 16.1 70.0 0.0 0.0 0.0 1.7 10.6 Kombisensor
2018-05-21 09:21:00 16.0 70.0 0.0 0.0 0.0 1.6 10.5 Kombisensor
2018-05-21 09:18:00 15.8 70.0 0.0 0.0 0.0 1.4 10.3 Kombisensor
2018-05-21 09:16:00 15.7 70.0 0.0 0.0 0.0 1.4 10.2 Kombisensor
2018-05-21 09:13:00 15.6 70.0 0.0 0.0 0.0 1.5 10.2 Kombisensor
2018-05-21 09:08:00 15.4 71.0 0.0 0.0 0.0 1.8 10.2 Kombisensor
2018-05-21 09:01:00 15.3 71.0 0.0 0.0 0.0 2.4 10.1 Kombisensor
2018-05-21 08:58:00 15.4 72.0 0.0 0.0 0.0 2.5 10.4 Kombisensor
2018-05-21 08:53:00 15.3 72.0 0.0 0.0 0.0 2.7 10.3 Kombisensor
2018-05-21 08:48:00 15.2 72.0 0.0 0.0 0.0 2.8 10.2 Kombisensor
2018-05-21 08:45:00 15.3 72.0 0.0 0.0 0.0 2.9 10.3 Kombisensor
2018-05-21 08:43:00 15.4 72.0 0.0 0.0 0.0 3.0 10.4 Kombisensor
2018-05-21 08:38:00 15.3 74.0 0.0 0.0 0.0 3.3 10.7 Kombisensor
2018-05-21 08:35:00 15.2 74.0 0.0 0.0 0.0 3.3 10.6 Kombisensor
2018-05-21 08:33:00 15.0 74.0 0.0 0.0 0.0 3.2 10.4 Kombisensor
2018-05-21 08:30:00 14.8 74.0 0.0 0.0 0.0 3.0 10.2 Kombisensor
2018-05-21 08:28:00 14.7 75.0 0.0 0.0 0.0 3.0 10.3 Kombisensor
2018-05-21 08:25:00 14.5 75.0 0.0 0.0 0.0 2.9 10.1 Kombisensor
2018-05-21 08:20:00 14.4 75.0 0.0 0.0 0.0 3.1 10.0 Kombisensor
2018-05-21 08:18:00 14.4 76.0 0.2 0.0 0.0 3.2 10.2 Kombisensor
2018-05-21 08:15:00 14.3 76.0 0.0 0.0 0.0 3.1 10.1 Kombisensor
2018-05-21 08:12:00 14.1 77.0 0.0 0.0 0.0 3.0 10.1 Kombisensor
2018-05-21 08:10:00 13.9 77.0 0.0 0.0 0.0 2.8 9.9 Kombisensor
2018-05-21 08:07:00 13.6 78.0 0.0 0.0 0.0 2.7 9.8 Kombisensor
2018-05-21 08:05:00 13.5 79.0 0.0 0.0 0.0 2.7 9.9 Kombisensor
2018-05-21 08:02:00 13.2 80.0 0.0 0.0 0.0 2.6 9.8 Kombisensor
2018-05-21 07:57:00 12.9 81.0 0.0 0.0 0.0 2.4 9.7 Kombisensor
2018-05-21 07:55:00 12.8 81.0 0.0 0.0 0.0 2.4 9.6 Kombisensor
2018-05-21 07:52:00 12.6 81.0 0.0 0.0 0.0 2.2 9.4 Kombisensor
2018-05-21 07:50:00 12.6 82.0 0.0 0.0 0.0 2.3 9.6 Kombisensor
2018-05-21 07:44:00 12.4 82.0 0.0 0.0 0.0 2.3 9.4 Kombisensor
2018-05-21 07:39:00 12.1 83.0 0.0 0.0 0.0 2.1 9.3 Kombisensor
2018-05-21 07:37:00 12.0 83.0 0.0 0.0 0.0 2.1 9.2 Kombisensor
2018-05-21 07:34:00 11.9 83.0 0.0 0.0 0.0 2.1 9.1 Kombisensor
2018-05-21 07:29:00 11.8 84.0 0.0 0.0 0.0 2.2 9.2 Kombisensor
2018-05-21 07:27:00 11.7 84.0 0.0 0.0 0.0 2.1 9.1 Kombisensor
2018-05-21 07:24:00 11.6 84.0 0.0 0.0 0.0 2.2 9.0 Kombisensor
2018-05-21 07:22:00 11.4 84.0 0.0 0.0 0.0 2.1 8.7 Kombisensor
2018-05-21 07:19:00 11.3 84.0 0.0 0.0 0.0 2.0 8.7 Kombisensor
2018-05-21 07:17:00 11.2 84.0 0.0 0.0 0.0 1.9 8.6 Kombisensor
2018-05-21 07:14:00 11.2 85.0 0.0 0.0 0.0 1.9 8.8 Kombisensor
2018-05-21 07:11:00 11.1 85.0 0.0 0.0 0.0 1.9 8.7 Kombisensor
2018-05-21 07:09:00 11.0 85.0 0.0 0.0 0.0 1.8 8.6 Kombisensor
2018-05-21 07:06:00 10.9 85.0 0.0 0.0 0.0 1.9 8.5 Kombisensor
2018-05-21 07:04:00 10.8 85.0 0.0 0.0 0.0 1.8 8.4 Kombisensor
2018-05-21 06:59:00 10.6 85.0 0.0 0.0 0.0 1.6 8.2 Kombisensor
2018-05-21 06:56:00 10.5 86.0 0.0 0.0 0.0 1.6 8.3 Kombisensor
2018-05-21 06:51:00 10.4 86.0 0.0 0.0 0.0 1.5 8.2 Kombisensor
2018-05-21 06:49:00 10.3 86.0 0.0 0.0 0.0 1.5 8.1 Kombisensor
2018-05-21 06:46:00 10.2 86.0 0.0 0.0 0.0 1.4 8.0 Kombisensor
2018-05-21 06:43:00 10.1 87.0 0.0 0.0 0.0 1.3 8.0 Kombisensor
2018-05-21 06:38:00 10.0 87.0 0.0 0.0 0.0 1.3 7.9 Kombisensor
2018-05-21 06:36:00 9.9 87.0 0.0 0.0 0.0 1.2 7.8 Kombisensor
2018-05-21 06:33:00 9.8 87.0 0.0 0.0 0.0 1.1 7.7 Kombisensor
2018-05-21 06:31:00 9.7 87.0 0.0 0.0 0.0 1.1 7.6 Kombisensor
2018-05-21 06:26:00 9.6 87.0 0.0 0.0 0.0 1.1 7.5 Kombisensor
2018-05-21 06:23:00 9.4 87.0 0.0 0.0 0.0 1.0 7.3 Kombisensor
2018-05-21 06:15:00 9.3 87.0 0.0 0.0 0.0 0.9 7.2 Kombisensor
2018-05-21 06:08:00 9.2 87.0 0.0 0.0 0.0 0.6 7.2 Kombisensor
2018-05-21 05:58:00 9.0 87.0 0.0 0.0 0.0 0.4 7.0 Kombisensor
2018-05-21 05:50:00 8.9 87.0 0.0 0.0 0.0 0.4 6.9 Kombisensor
2018-05-21 05:42:00 8.8 87.0 0.0 0.0 0.0 0.4 6.8 Kombisensor
2018-05-21 05:35:00 8.7 87.0 0.0 0.0 0.0 0.5 6.7 Kombisensor
2018-05-21 05:32:00 8.7 86.0 0.0 0.0 0.0 0.5 6.5 Kombisensor
2018-05-21 05:30:00 8.6 86.0 0.0 0.0 0.0 0.4 6.4 Kombisensor
2018-05-21 05:27:00 8.6 87.0 0.0 0.0 0.0 0.5 6.6 Kombisensor
2018-05-21 05:25:00 8.5 86.0 0.0 0.0 0.0 0.4 6.3 Kombisensor
2018-05-21 05:12:00 8.4 86.0 0.0 0.0 0.0 0.4 6.2 Kombisensor
2018-05-21 05:09:00 8.5 86.0 0.0 0.0 0.0 0.4 6.3 Kombisensor
2018-05-21 04:52:00 8.6 86.0 0.0 0.0 0.0 0.2 6.4 Kombisensor
2018-05-21 04:49:00 8.5 85.0 0.0 0.0 0.0 0.1 6.1 Kombisensor
2018-05-21 04:41:00 8.4 85.0 0.0 0.0 0.0 -0.3 6.0 Kombisensor
2018-05-21 04:39:00 8.3 85.0 0.0 0.0 0.0 -0.4 5.9 Kombisensor
2018-05-21 04:34:00 8.2 85.0 0.0 0.0 0.0 -0.6 5.8 Kombisensor
2018-05-21 04:29:00 8.2 84.0 0.0 0.0 0.0 -0.7 5.7 Kombisensor
2018-05-21 04:21:00 8.1 84.0 0.0 0.0 0.0 -0.9 5.6 Kombisensor
2018-05-21 04:11:00 8.0 84.0 0.0 0.0 0.0 -1.0 5.5 Kombisensor
2018-05-21 04:08:00 8.1 84.0 0.0 0.0 0.0 -0.9 5.6 Kombisensor
2018-05-21 04:03:00 8.2 84.0 0.0 0.0 0.0 -0.9 5.7 Kombisensor
2018-05-21 03:56:00 8.2 83.0 0.0 0.0 0.0 -0.9 5.5 Kombisensor
2018-05-21 03:53:00 8.3 83.0 0.0 0.0 0.0 -0.8 5.6 Kombisensor
2018-05-21 03:48:00 8.4 83.0 0.0 0.0 0.0 -0.8 5.7 Kombisensor
2018-05-21 03:46:00 8.5 82.0 0.0 0.0 0.0 -0.7 5.6 Kombisensor
2018-05-21 03:43:00 8.6 82.0 0.0 0.0 0.0 -0.6 5.7 Kombisensor
2018-05-21 03:40:00 8.7 82.0 0.0 0.0 0.0 -0.5 5.8 Kombisensor
2018-05-21 03:30:00 8.8 82.0 0.0 0.0 0.0 -0.5 5.9 Kombisensor
2018-05-21 03:25:00 8.9 82.0 0.0 0.0 0.0 -0.5 6.0 Kombisensor
2018-05-21 03:07:00 9.0 82.0 0.0 0.0 0.0 -0.4 6.1 Kombisensor
2018-05-21 02:52:00 9.1 82.0 0.0 0.0 0.0 -0.5 6.2 Kombisensor
2018-05-21 02:45:00 9.2 82.0 0.0 0.0 0.0 -0.4 6.3 Kombisensor
2018-05-21 02:32:00 9.2 81.0 0.0 0.0 0.0 -0.4 6.1 Kombisensor
2018-05-21 02:27:00 9.3 81.0 0.0 0.0 0.0 -0.4 6.2 Kombisensor
2018-05-21 02:24:00 9.4 81.0 0.0 0.0 0.0 -0.3 6.3 Kombisensor
2018-05-21 02:09:00 9.4 80.0 0.0 0.0 0.0 -0.4 6.1 Kombisensor
2018-05-21 02:06:00 9.4 79.0 0.0 0.0 0.0 -0.4 6.0 Kombisensor
2018-05-21 02:01:00 9.5 79.0 0.0 0.0 0.0 -0.4 6.0 Kombisensor
2018-05-21 01:59:00 9.4 79.0 0.0 0.0 0.0 -0.5 6.0 Kombisensor
2018-05-21 01:56:00 9.5 79.0 0.0 0.0 0.0 -0.4 6.0 Kombisensor
2018-05-21 01:54:00 9.6 79.0 0.0 0.0 0.0 -0.3 6.1 Kombisensor
2018-05-21 01:38:00 9.6 78.0 0.0 0.0 0.0 -0.4 6.0 Kombisensor
2018-05-21 01:28:00 9.6 77.0 0.0 0.0 0.0 -0.5 5.8 Kombisensor
2018-05-21 01:23:00 9.7 77.0 0.0 0.0 0.0 -0.4 5.9 Kombisensor
2018-05-21 01:13:00 9.7 76.0 0.0 0.0 0.0 -0.7 5.7 Kombisensor
2018-05-21 01:10:00 9.8 76.0 0.0 0.0 0.0 -0.6 5.8 Kombisensor
2018-05-21 01:05:00 9.8 75.0 0.0 0.0 0.0 0.2 5.6 Kombisensor
2018-05-21 00:50:00 9.9 75.0 0.0 0.0 0.0 -0.1 5.7 Kombisensor
2018-05-21 00:30:00 10.0 75.0 0.0 0.0 0.0 -0.1 5.8 Kombisensor
2018-05-21 00:25:00 10.1 75.0 0.0 0.0 0.0 0.0 5.9 Kombisensor
2018-05-21 00:22:00 10.1 74.0 0.0 0.0 0.0 -0.1 5.7 Kombisensor
2018-05-21 00:17:00 10.2 74.0 0.0 0.0 0.0 -0.2 5.8 Kombisensor
2018-05-21 00:09:00 10.4 73.0 0.0 0.0 0.0 -0.1 5.8 Kombisensor
2018-05-21 00:07:00 10.5 73.0 0.0 0.0 0.0 -1.5 5.9 Kombisensor